sensor_id;sensor_type;location;lat;lon;timestamp;P1;durP1;ratioP1;P2;durP2;ratioP2
8982;SDS011;20979;59.850;10.660;2022-10-30T00:02:23;4.67;;;4.03;;
8982;SDS011;20979;59.850;10.660;2022-10-30T00:04:50;5.67;;;4.13;;
8982;SDS011;20979;59.850;10.660;2022-10-30T00:07:17;5.13;;;4.03;;
8982;SDS011;20979;59.850;10.660;2022-10-30T00:09:46;6.27;;;3.90;;
8982;SDS011;20979;59.850;10.660;2022-10-30T00:12:13;5.07;;;3.77;;
8982;SDS011;20979;59.850;10.660;2022-10-30T00:14:40;5.07;;;4.07;;
8982;SDS011;20979;59.850;10.660;2022-10-30T00:17:08;5.17;;;4.40;;
8982;SDS011;20979;59.850;10.660;2022-10-30T00:19:35;5.23;;;3.90;;
8982;SDS011;20979;59.850;10.660;2022-10-30T00:22:02;9.43;;;4.13;;
8982;SDS011;20979;59.850;10.660;2022-10-30T00:24:29;5.63;;;3.87;;
8982;SDS011;20979;59.850;10.660;2022-10-30T00:26:58;4.67;;;3.77;;
8982;SDS011;20979;59.850;10.660;2022-10-30T00:29:25;5.73;;;3.90;;
8982;SDS011;20979;59.850;10.660;2022-10-30T00:31:52;4.50;;;3.50;;
8982;SDS011;20979;59.850;10.660;2022-10-30T00:34:20;7.03;;;3.77;;
8982;SDS011;20979;59.850;10.660;2022-10-30T00:36:47;6.10;;;3.60;;
8982;SDS011;20979;59.850;10.660;2022-10-30T00:39:14;5.77;;;3.90;;
8982;SDS011;20979;59.850;10.660;2022-10-30T00:41:42;5.10;;;3.70;;
8982;SDS011;20979;59.850;10.660;2022-10-30T00:46:56;4.13;;;3.37;;
8982;SDS011;20979;59.850;10.660;2022-10-30T00:49:28;6.03;;;3.33;;
8982;SDS011;20979;59.850;10.660;2022-10-30T00:51:58;3.97;;;3.10;;
8982;SDS011;20979;59.850;10.660;2022-10-30T00:54:25;3.90;;;3.20;;
8982;SDS011;20979;59.850;10.660;2022-10-30T00:56:53;3.30;;;3.00;;
8982;SDS011;20979;59.850;10.660;2022-10-30T00:59:21;4.10;;;2.77;;
8982;SDS011;20979;59.850;10.660;2022-10-30T01:01:49;5.50;;;3.27;;
8982;SDS011;20979;59.850;10.660;2022-10-30T01:04:19;4.87;;;3.33;;
8982;SDS011;20979;59.850;10.660;2022-10-30T01:06:47;3.90;;;2.80;;
8982;SDS011;20979;59.850;10.660;2022-10-30T01:09:16;3.10;;;2.80;;
8982;SDS011;20979;59.850;10.660;2022-10-30T01:11:44;3.60;;;2.90;;
8982;SDS011;20979;59.850;10.660;2022-10-30T01:14:12;3.50;;;3.17;;
8982;SDS011;20979;59.850;10.660;2022-10-30T01:16:45;5.57;;;2.80;;
8982;SDS011;20979;59.850;10.660;2022-10-30T01:19:20;3.57;;;2.73;;
8982;SDS011;20979;59.850;10.660;2022-10-30T01:21:52;3.00;;;2.70;;
8982;SDS011;20979;59.850;10.660;2022-10-30T01:24:38;6.23;;;3.27;;
8982;SDS011;20979;59.850;10.660;2022-10-30T01:27:13;4.13;;;2.80;;
8982;SDS011;20979;59.850;10.660;2022-10-30T01:29:47;3.57;;;3.10;;
8982;SDS011;20979;59.850;10.660;2022-10-30T01:32:19;3.47;;;2.83;;
8982;SDS011;20979;59.850;10.660;2022-10-30T01:34:56;4.10;;;2.87;;
8982;SDS011;20979;59.850;10.660;2022-10-30T01:37:26;3.60;;;2.70;;
8982;SDS011;20979;59.850;10.660;2022-10-30T01:39:54;4.13;;;3.00;;
8982;SDS011;20979;59.850;10.660;2022-10-30T01:45:08;3.47;;;3.00;;
8982;SDS011;20979;59.850;10.660;2022-10-30T01:47:38;5.40;;;3.00;;
8982;SDS011;20979;59.850;10.660;2022-10-30T01:50:11;3.20;;;2.90;;
8982;SDS011;20979;59.850;10.660;2022-10-30T01:52:44;4.80;;;3.27;;
8982;SDS011;20979;59.850;10.660;2022-10-30T01:55:17;4.67;;;3.27;;
8982;SDS011;20979;59.850;10.660;2022-10-30T01:57:48;4.27;;;2.97;;
8982;SDS011;20979;59.850;10.660;2022-10-30T02:00:17;4.87;;;3.17;;
8982;SDS011;20979;59.850;10.660;2022-10-30T02:02:45;3.63;;;2.83;;
8982;SDS011;20979;59.850;10.660;2022-10-30T02:05:16;5.23;;;3.27;;
8982;SDS011;20979;59.850;10.660;2022-10-30T02:07:45;3.53;;;2.93;;
8982;SDS011;20979;59.850;10.660;2022-10-30T02:10:13;7.10;;;3.50;;
8982;SDS011;20979;59.850;10.660;2022-10-30T02:12:40;4.67;;;3.53;;
8982;SDS011;20979;59.850;10.660;2022-10-30T02:15:08;6.30;;;3.70;;
8982;SDS011;20979;59.850;10.660;2022-10-30T02:17:35;6.23;;;3.97;;
8982;SDS011;20979;59.850;10.660;2022-10-30T02:20:05;5.47;;;3.70;;
8982;SDS011;20979;59.850;10.660;2022-10-30T02:22:33;4.93;;;3.43;;
8982;SDS011;20979;59.850;10.660;2022-10-30T02:25:00;4.23;;;3.53;;
8982;SDS011;20979;59.850;10.660;2022-10-30T02:27:28;4.70;;;3.67;;
8982;SDS011;20979;59.850;10.660;2022-10-30T02:29:55;3.60;;;3.30;;
8982;SDS011;20979;59.850;10.660;2022-10-30T02:32:24;4.93;;;3.13;;
8982;SDS011;20979;59.850;10.660;2022-10-30T02:34:51;5.70;;;3.13;;
8982;SDS011;20979;59.850;10.660;2022-10-30T02:37:18;4.87;;;3.57;;
8982;SDS011;20979;59.850;10.660;2022-10-30T02:39:47;3.77;;;3.33;;
8982;SDS011;20979;59.850;10.660;2022-10-30T02:42:14;5.37;;;3.10;;
8982;SDS011;20979;59.850;10.660;2022-10-30T02:44:41;3.53;;;3.23;;
8982;SDS011;20979;59.850;10.660;2022-10-30T02:47:08;4.23;;;3.30;;
8982;SDS011;20979;59.850;10.660;2022-10-30T02:49:36;4.70;;;2.97;;
8982;SDS011;20979;59.850;10.660;2022-10-30T02:52:04;4.70;;;3.30;;
8982;SDS011;20979;59.850;10.660;2022-10-30T02:54:32;3.57;;;3.00;;
8982;SDS011;20979;59.850;10.660;2022-10-30T02:57:00;3.33;;;3.03;;
8982;SDS011;20979;59.850;10.660;2022-10-30T02:59:28;4.47;;;3.00;;
8982;SDS011;20979;59.850;10.660;2022-10-30T03:01:55;3.90;;;3.07;;
8982;SDS011;20979;59.850;10.660;2022-10-30T03:04:22;3.37;;;3.00;;
8982;SDS011;20979;59.850;10.660;2022-10-30T03:06:50;7.43;;;3.23;;
8982;SDS011;20979;59.850;10.660;2022-10-30T03:09:17;3.30;;;2.97;;
8982;SDS011;20979;59.850;10.660;2022-10-30T03:11:44;4.53;;;2.83;;
8982;SDS011;20979;59.850;10.660;2022-10-30T03:14:13;3.93;;;2.70;;
8982;SDS011;20979;59.850;10.660;2022-10-30T03:16:40;5.57;;;3.10;;
8982;SDS011;20979;59.850;10.660;2022-10-30T03:19:07;4.57;;;3.10;;
8982;SDS011;20979;59.850;10.660;2022-10-30T03:21:34;3.93;;;3.17;;
8982;SDS011;20979;59.850;10.660;2022-10-30T03:24:02;3.67;;;3.20;;
8982;SDS011;20979;59.850;10.660;2022-10-30T03:26:29;5.63;;;3.40;;
8982;SDS011;20979;59.850;10.660;2022-10-30T03:28:56;2.83;;;2.63;;
8982;SDS011;20979;59.850;10.660;2022-10-30T03:31:25;4.17;;;3.10;;
8982;SDS011;20979;59.850;10.660;2022-10-30T03:33:52;4.83;;;3.30;;
8982;SDS011;20979;59.850;10.660;2022-10-30T03:36:19;7.03;;;3.13;;
8982;SDS011;20979;59.850;10.660;2022-10-30T03:38:46;4.17;;;2.77;;
8982;SDS011;20979;59.850;10.660;2022-10-30T03:41:13;5.73;;;3.10;;
8982;SDS011;20979;59.850;10.660;2022-10-30T03:43:41;2.63;;;2.43;;
8982;SDS011;20979;59.850;10.660;2022-10-30T03:46:08;5.03;;;3.07;;
8982;SDS011;20979;59.850;10.660;2022-10-30T03:48:37;3.27;;;2.97;;
8982;SDS011;20979;59.850;10.660;2022-10-30T03:51:04;4.00;;;2.70;;
8982;SDS011;20979;59.850;10.660;2022-10-30T03:53:31;4.43;;;2.70;;
8982;SDS011;20979;59.850;10.660;2022-10-30T03:55:59;2.57;;;2.30;;
8982;SDS011;20979;59.850;10.660;2022-10-30T03:58:27;5.00;;;2.63;;
8982;SDS011;20979;59.850;10.660;2022-10-30T04:00:58;4.40;;;2.63;;
8982;SDS011;20979;59.850;10.660;2022-10-30T04:03:26;2.70;;;2.50;;
8982;SDS011;20979;59.850;10.660;2022-10-30T04:05:55;3.13;;;2.47;;
8982;SDS011;20979;59.850;10.660;2022-10-30T04:08:22;3.80;;;2.60;;
8982;SDS011;20979;59.850;10.660;2022-10-30T04:10:49;2.43;;;2.23;;
8982;SDS011;20979;59.850;10.660;2022-10-30T04:13:17;2.40;;;2.03;;
8982;SDS011;20979;59.850;10.660;2022-10-30T04:15:46;2.57;;;2.00;;
8982;SDS011;20979;59.850;10.660;2022-10-30T04:18:13;2.50;;;1.83;;
8982;SDS011;20979;59.850;10.660;2022-10-30T04:20:41;2.93;;;2.23;;
8982;SDS011;20979;59.850;10.660;2022-10-30T04:23:11;2.30;;;2.10;;
8982;SDS011;20979;59.850;10.660;2022-10-30T04:25:38;2.27;;;2.07;;
8982;SDS011;20979;59.850;10.660;2022-10-30T04:28:06;3.00;;;2.37;;
8982;SDS011;20979;59.850;10.660;2022-10-30T04:30:33;4.33;;;1.90;;
8982;SDS011;20979;59.850;10.660;2022-10-30T04:33:02;3.27;;;2.17;;
8982;SDS011;20979;59.850;10.660;2022-10-30T04:35:29;2.40;;;1.70;;
8982;SDS011;20979;59.850;10.660;2022-10-30T04:37:57;4.33;;;1.80;;
8982;SDS011;20979;59.850;10.660;2022-10-30T04:40:27;1.83;;;1.70;;
8982;SDS011;20979;59.850;10.660;2022-10-30T04:42:54;2.90;;;1.87;;
8982;SDS011;20979;59.850;10.660;2022-10-30T04:45:21;1.70;;;1.60;;
8982;SDS011;20979;59.850;10.660;2022-10-30T04:47:49;1.73;;;1.50;;
8982;SDS011;20979;59.850;10.660;2022-10-30T04:50:16;1.50;;;1.40;;
8982;SDS011;20979;59.850;10.660;2022-10-30T04:52:43;2.43;;;1.70;;
8982;SDS011;20979;59.850;10.660;2022-10-30T04:55:11;2.70;;;1.50;;
8982;SDS011;20979;59.850;10.660;2022-10-30T04:57:39;2.73;;;1.50;;
8982;SDS011;20979;59.850;10.660;2022-10-30T05:00:07;1.43;;;1.33;;
8982;SDS011;20979;59.850;10.660;2022-10-30T05:02:34;2.10;;;1.90;;
8982;SDS011;20979;59.850;10.660;2022-10-30T05:05:02;1.60;;;1.50;;
8982;SDS011;20979;59.850;10.660;2022-10-30T05:07:29;1.50;;;1.40;;
8982;SDS011;20979;59.850;10.660;2022-10-30T05:09:56;1.57;;;1.37;;
8982;SDS011;20979;59.850;10.660;2022-10-30T05:12:23;1.73;;;1.50;;
8982;SDS011;20979;59.850;10.660;2022-10-30T05:14:52;6.40;;;3.20;;
8982;SDS011;20979;59.850;10.660;2022-10-30T05:17:19;3.33;;;2.90;;
8982;SDS011;20979;59.850;10.660;2022-10-30T05:19:47;2.73;;;2.53;;
8982;SDS011;20979;59.850;10.660;2022-10-30T05:22:14;9.20;;;7.00;;
8982;SDS011;20979;59.850;10.660;2022-10-30T05:24:41;7.00;;;6.30;;
8982;SDS011;20979;59.850;10.660;2022-10-30T05:27:08;5.60;;;5.10;;
8982;SDS011;20979;59.850;10.660;2022-10-30T05:29:36;4.60;;;4.20;;
8982;SDS011;20979;59.850;10.660;2022-10-30T05:32:04;6.00;;;4.23;;
8982;SDS011;20979;59.850;10.660;2022-10-30T05:34:32;4.43;;;4.03;;
8982;SDS011;20979;59.850;10.660;2022-10-30T05:36:59;7.10;;;4.53;;
8982;SDS011;20979;59.850;10.660;2022-10-30T05:39:26;6.27;;;3.90;;
8982;SDS011;20979;59.850;10.660;2022-10-30T05:41:54;20.30;;;4.40;;
8982;SDS011;20979;59.850;10.660;2022-10-30T05:44:21;6.47;;;3.90;;
8982;SDS011;20979;59.850;10.660;2022-10-30T05:46:48;5.03;;;3.23;;
8982;SDS011;20979;59.850;10.660;2022-10-30T05:49:17;3.50;;;3.20;;
8982;SDS011;20979;59.850;10.660;2022-10-30T05:51:44;4.60;;;3.40;;
8982;SDS011;20979;59.850;10.660;2022-10-30T05:54:11;8.27;;;3.70;;
8982;SDS011;20979;59.850;10.660;2022-10-30T05:56:39;25.30;;;6.00;;
8982;SDS011;20979;59.850;10.660;2022-10-30T05:59:06;83.83;;;10.67;;
8982;SDS011;20979;59.850;10.660;2022-10-30T06:01:33;162.17;;;11.83;;
8982;SDS011;20979;59.850;10.660;2022-10-30T06:04:00;37.30;;;5.57;;
8982;SDS011;20979;59.850;10.660;2022-10-30T06:06:29;11.17;;;3.73;;
8982;SDS011;20979;59.850;10.660;2022-10-30T06:08:56;10.67;;;3.87;;
8982;SDS011;20979;59.850;10.660;2022-10-30T06:11:23;15.27;;;3.60;;
8982;SDS011;20979;59.850;10.660;2022-10-30T06:13:50;9.00;;;3.47;;
8982;SDS011;20979;59.850;10.660;2022-10-30T06:16:18;16.87;;;3.77;;
8982;SDS011;20979;59.850;10.660;2022-10-30T06:18:45;31.57;;;12.67;;
8982;SDS011;20979;59.850;10.660;2022-10-30T06:21:12;15.23;;;5.57;;
8982;SDS011;20979;59.850;10.660;2022-10-30T06:23:41;45.43;;;18.70;;
8982;SDS011;20979;59.850;10.660;2022-10-30T06:26:08;39.17;;;11.67;;
8982;SDS011;20979;59.850;10.660;2022-10-30T06:28:35;19.77;;;6.53;;
8982;SDS011;20979;59.850;10.660;2022-10-30T06:31:02;9.33;;;5.23;;
8982;SDS011;20979;59.850;10.660;2022-10-30T06:33:30;5.37;;;3.47;;
8982;SDS011;20979;59.850;10.660;2022-10-30T06:35:57;13.27;;;4.03;;
8982;SDS011;20979;59.850;10.660;2022-10-30T06:38:24;5.33;;;3.23;;
8982;SDS011;20979;59.850;10.660;2022-10-30T06:40:53;5.97;;;3.10;;
8982;SDS011;20979;59.850;10.660;2022-10-30T06:43:20;10.57;;;8.17;;
8982;SDS011;20979;59.850;10.660;2022-10-30T06:45:47;8.33;;;5.77;;
8982;SDS011;20979;59.850;10.660;2022-10-30T06:48:15;7.33;;;5.43;;
8982;SDS011;20979;59.850;10.660;2022-10-30T06:50:42;5.63;;;3.93;;
8982;SDS011;20979;59.850;10.660;2022-10-30T06:53:10;3.60;;;3.30;;
8982;SDS011;20979;59.850;10.660;2022-10-30T06:55:37;6.17;;;3.43;;
8982;SDS011;20979;59.850;10.660;2022-10-30T06:58:05;6.77;;;3.10;;
8982;SDS011;20979;59.850;10.660;2022-10-30T07:00:33;6.73;;;3.43;;
8982;SDS011;20979;59.850;10.660;2022-10-30T07:03:00;5.40;;;3.23;;
8982;SDS011;20979;59.850;10.660;2022-10-30T07:05:28;3.13;;;2.80;;
8982;SDS011;20979;59.850;10.660;2022-10-30T07:07:56;5.20;;;3.50;;
8982;SDS011;20979;59.850;10.660;2022-10-30T07:10:23;16.90;;;4.80;;
8982;SDS011;20979;59.850;10.660;2022-10-30T07:12:51;37.90;;;6.17;;
8982;SDS011;20979;59.850;10.660;2022-10-30T07:15:20;54.50;;;7.93;;
8982;SDS011;20979;59.850;10.660;2022-10-30T07:17:50;69.37;;;8.33;;
8982;SDS011;20979;59.850;10.660;2022-10-30T07:20:19;8.87;;;3.87;;
8982;SDS011;20979;59.850;10.660;2022-10-30T07:22:46;13.00;;;4.90;;
8982;SDS011;20979;59.850;10.660;2022-10-30T07:25:13;22.17;;;5.20;;
8982;SDS011;20979;59.850;10.660;2022-10-30T07:27:41;56.50;;;5.93;;
8982;SDS011;20979;59.850;10.660;2022-10-30T07:30:09;66.63;;;7.53;;
8982;SDS011;20979;59.850;10.660;2022-10-30T07:32:37;34.07;;;5.67;;
8982;SDS011;20979;59.850;10.660;2022-10-30T07:35:05;35.17;;;6.17;;
8982;SDS011;20979;59.850;10.660;2022-10-30T07:37:32;23.73;;;4.87;;
8982;SDS011;20979;59.850;10.660;2022-10-30T07:40:00;7.93;;;4.00;;
8982;SDS011;20979;59.850;10.660;2022-10-30T07:42:27;7.27;;;4.03;;
8982;SDS011;20979;59.850;10.660;2022-10-30T07:44:54;4.50;;;3.43;;
8982;SDS011;20979;59.850;10.660;2022-10-30T07:47:21;5.17;;;4.30;;
8982;SDS011;20979;59.850;10.660;2022-10-30T07:49:50;4.20;;;3.60;;
8982;SDS011;20979;59.850;10.660;2022-10-30T07:52:17;3.97;;;3.67;;
8982;SDS011;20979;59.850;10.660;2022-10-30T07:54:44;3.80;;;3.50;;
8982;SDS011;20979;59.850;10.660;2022-10-30T07:57:12;4.03;;;3.60;;
8982;SDS011;20979;59.850;10.660;2022-10-30T07:59:39;3.43;;;3.13;;
8982;SDS011;20979;59.850;10.660;2022-10-30T08:02:07;3.50;;;3.20;;
8982;SDS011;20979;59.850;10.660;2022-10-30T08:04:34;3.40;;;3.10;;
8982;SDS011;20979;59.850;10.660;2022-10-30T08:07:03;3.20;;;2.70;;
8982;SDS011;20979;59.850;10.660;2022-10-30T08:09:30;2.60;;;2.40;;
8982;SDS011;20979;59.850;10.660;2022-10-30T08:11:57;3.60;;;3.30;;
8982;SDS011;20979;59.850;10.660;2022-10-30T08:14:25;3.53;;;3.23;;
8982;SDS011;20979;59.850;10.660;2022-10-30T08:16:52;3.23;;;2.90;;
8982;SDS011;20979;59.850;10.660;2022-10-30T08:19:19;3.73;;;2.80;;
8982;SDS011;20979;59.850;10.660;2022-10-30T08:21:46;3.30;;;3.00;;
8982;SDS011;20979;59.850;10.660;2022-10-30T08:24:15;8.90;;;8.00;;
8982;SDS011;20979;59.850;10.660;2022-10-30T08:26:42;9.57;;;7.73;;
8982;SDS011;20979;59.850;10.660;2022-10-30T08:29:09;6.60;;;6.00;;
8982;SDS011;20979;59.850;10.660;2022-10-30T08:31:36;5.93;;;4.90;;
8982;SDS011;20979;59.850;10.660;2022-10-30T08:34:04;10.60;;;8.47;;
8982;SDS011;20979;59.850;10.660;2022-10-30T08:36:31;11.87;;;8.37;;
8982;SDS011;20979;59.850;10.660;2022-10-30T08:38:58;5.23;;;4.73;;
8982;SDS011;20979;59.850;10.660;2022-10-30T08:41:29;4.10;;;3.70;;
8982;SDS011;20979;59.850;10.660;2022-10-30T08:43:56;4.13;;;3.60;;
8982;SDS011;20979;59.850;10.660;2022-10-30T08:46:23;4.87;;;3.40;;
8982;SDS011;20979;59.850;10.660;2022-10-30T08:48:51;3.50;;;3.07;;
8982;SDS011;20979;59.850;10.660;2022-10-30T08:51:19;4.30;;;3.40;;
8982;SDS011;20979;59.850;10.660;2022-10-30T08:53:46;4.07;;;3.67;;
8982;SDS011;20979;59.850;10.660;2022-10-30T08:56:14;4.03;;;3.73;;
8982;SDS011;20979;59.850;10.660;2022-10-30T08:58:42;5.30;;;3.90;;
8982;SDS011;20979;59.850;10.660;2022-10-30T09:01:09;4.30;;;3.90;;
8982;SDS011;20979;59.850;10.660;2022-10-30T09:03:37;5.90;;;4.17;;
8982;SDS011;20979;59.850;10.660;2022-10-30T09:06:04;6.40;;;4.30;;
8982;SDS011;20979;59.850;10.660;2022-10-30T09:08:31;4.30;;;3.80;;
8982;SDS011;20979;59.850;10.660;2022-10-30T09:10:58;3.80;;;3.50;;
8982;SDS011;20979;59.850;10.660;2022-10-30T09:13:26;4.57;;;3.93;;
8982;SDS011;20979;59.850;10.660;2022-10-30T09:15:57;4.63;;;4.07;;
8982;SDS011;20979;59.850;10.660;2022-10-30T09:18:25;7.83;;;4.77;;
8982;SDS011;20979;59.850;10.660;2022-10-30T09:20:52;4.47;;;3.90;;
8982;SDS011;20979;59.850;10.660;2022-10-30T09:23:19;6.00;;;3.80;;
8982;SDS011;20979;59.850;10.660;2022-10-30T09:25:47;5.07;;;4.33;;
8982;SDS011;20979;59.850;10.660;2022-10-30T09:28:20;17.77;;;5.23;;
8982;SDS011;20979;59.850;10.660;2022-10-30T09:30:50;7.23;;;4.47;;
8982;SDS011;20979;59.850;10.660;2022-10-30T09:33:21;26.03;;;6.47;;
8982;SDS011;20979;59.850;10.660;2022-10-30T09:35:49;31.47;;;6.70;;
8982;SDS011;20979;59.850;10.660;2022-10-30T09:38:16;4.90;;;4.40;;
8982;SDS011;20979;59.850;10.660;2022-10-30T09:40:49;33.97;;;6.20;;
8982;SDS011;20979;59.850;10.660;2022-10-30T09:43:28;18.27;;;6.00;;
8982;SDS011;20979;59.850;10.660;2022-10-30T09:46:02;6.60;;;5.07;;
8982;SDS011;20979;59.850;10.660;2022-10-30T09:48:41;5.57;;;4.83;;
8982;SDS011;20979;59.850;10.660;2022-10-30T09:51:16;6.37;;;4.50;;
8982;SDS011;20979;59.850;10.660;2022-10-30T09:53:48;7.07;;;5.17;;
8982;SDS011;20979;59.850;10.660;2022-10-30T09:56:26;6.60;;;5.00;;
8982;SDS011;20979;59.850;10.660;2022-10-30T09:58:58;5.33;;;4.77;;
8982;SDS011;20979;59.850;10.660;2022-10-30T10:01:27;6.30;;;5.40;;
8982;SDS011;20979;59.850;10.660;2022-10-30T10:04:00;5.13;;;4.63;;
8982;SDS011;20979;59.850;10.660;2022-10-30T10:06:29;6.27;;;5.20;;
8982;SDS011;20979;59.850;10.660;2022-10-30T10:09:02;6.13;;;5.60;;
8982;SDS011;20979;59.850;10.660;2022-10-30T10:11:31;6.93;;;6.20;;
8982;SDS011;20979;59.850;10.660;2022-10-30T10:14:02;6.63;;;5.60;;
8982;SDS011;20979;59.850;10.660;2022-10-30T10:16:33;6.60;;;6.00;;
8982;SDS011;20979;59.850;10.660;2022-10-30T10:19:06;6.30;;;5.70;;
8982;SDS011;20979;59.850;10.660;2022-10-30T10:21:36;6.17;;;5.57;;
8982;SDS011;20979;59.850;10.660;2022-10-30T10:24:08;5.90;;;5.40;;
8982;SDS011;20979;59.850;10.660;2022-10-30T10:26:41;5.50;;;5.00;;
8982;SDS011;20979;59.850;10.660;2022-10-30T10:35:15;5.70;;;5.00;;
8982;SDS011;20979;59.850;10.660;2022-10-30T10:41:04;5.77;;;5.17;;
8982;SDS011;20979;59.850;10.660;2022-10-30T10:43:55;6.90;;;5.40;;
8982;SDS011;20979;59.850;10.660;2022-10-30T10:46:32;8.03;;;6.17;;
8982;SDS011;20979;59.850;10.660;2022-10-30T10:49:07;8.50;;;6.53;;
8982;SDS011;20979;59.850;10.660;2022-10-30T10:54:56;6.27;;;5.23;;
8982;SDS011;20979;59.850;10.660;2022-10-30T11:00:40;5.20;;;4.53;;
8982;SDS011;20979;59.850;10.660;2022-10-30T11:05:47;5.93;;;4.20;;
8982;SDS011;20979;59.850;10.660;2022-10-30T11:11:24;5.23;;;4.47;;
8982;SDS011;20979;59.850;10.660;2022-10-30T11:13:51;5.27;;;4.77;;
8982;SDS011;20979;59.850;10.660;2022-10-30T11:16:22;5.13;;;4.63;;
8982;SDS011;20979;59.850;10.660;2022-10-30T11:24:33;5.33;;;4.83;;
8982;SDS011;20979;59.850;10.660;2022-10-30T11:27:16;5.97;;;5.10;;
8982;SDS011;20979;59.850;10.660;2022-10-30T11:29:55;6.37;;;5.40;;
8982;SDS011;20979;59.850;10.660;2022-10-30T11:32:25;5.03;;;4.40;;
8982;SDS011;20979;59.850;10.660;2022-10-30T11:34:59;5.77;;;4.60;;
8982;SDS011;20979;59.850;10.660;2022-10-30T11:37:36;5.90;;;4.60;;
8982;SDS011;20979;59.850;10.660;2022-10-30T11:40:27;6.27;;;4.53;;
8982;SDS011;20979;59.850;10.660;2022-10-30T11:43:03;6.60;;;4.20;;
8982;SDS011;20979;59.850;10.660;2022-10-30T11:45:46;4.70;;;4.20;;
8982;SDS011;20979;59.850;10.660;2022-10-30T11:48:31;4.77;;;4.10;;
8982;SDS011;20979;59.850;10.660;2022-10-30T11:51:00;4.37;;;3.63;;
8982;SDS011;20979;59.850;10.660;2022-10-30T11:53:28;6.17;;;3.50;;
8982;SDS011;20979;59.850;10.660;2022-10-30T11:59:16;3.60;;;3.30;;
8982;SDS011;20979;59.850;10.660;2022-10-30T12:08:32;4.57;;;3.23;;
8982;SDS011;20979;59.850;10.660;2022-10-30T12:11:16;3.80;;;3.40;;
8982;SDS011;20979;59.850;10.660;2022-10-30T12:13:44;4.17;;;3.77;;
8982;SDS011;20979;59.850;10.660;2022-10-30T12:16:17;9.50;;;4.73;;
8982;SDS011;20979;59.850;10.660;2022-10-30T12:18:51;4.77;;;4.30;;
8982;SDS011;20979;59.850;10.660;2022-10-30T12:21:22;4.70;;;3.97;;
8982;SDS011;20979;59.850;10.660;2022-10-30T12:23:51;6.03;;;4.40;;
8982;SDS011;20979;59.850;10.660;2022-10-30T12:26:20;7.00;;;5.77;;
8982;SDS011;20979;59.850;10.660;2022-10-30T12:28:59;7.70;;;5.20;;
8982;SDS011;20979;59.850;10.660;2022-10-30T12:31:45;9.87;;;6.03;;
8982;SDS011;20979;59.850;10.660;2022-10-30T12:37:23;7.03;;;4.73;;
8982;SDS011;20979;59.850;10.660;2022-10-30T12:39:54;4.50;;;4.10;;
8982;SDS011;20979;59.850;10.660;2022-10-30T12:42:26;4.67;;;4.17;;
8982;SDS011;20979;59.850;10.660;2022-10-30T12:44:59;7.00;;;6.30;;
8982;SDS011;20979;59.850;10.660;2022-10-30T12:48:13;7.60;;;4.67;;
8982;SDS011;20979;59.850;10.660;2022-10-30T12:54:16;6.53;;;3.80;;
8982;SDS011;20979;59.850;10.660;2022-10-30T13:00:06;3.77;;;3.47;;
8982;SDS011;20979;59.850;10.660;2022-10-30T13:02:52;4.40;;;3.30;;
8982;SDS011;20979;59.850;10.660;2022-10-30T13:23:25;4.90;;;3.57;;
8982;SDS011;20979;59.850;10.660;2022-10-30T13:26:00;5.13;;;3.63;;
8982;SDS011;20979;59.850;10.660;2022-10-30T13:28:31;5.07;;;4.00;;
8982;SDS011;20979;59.850;10.660;2022-10-30T13:31:01;3.63;;;3.33;;
8982;SDS011;20979;59.850;10.660;2022-10-30T13:33:34;6.47;;;3.57;;
8982;SDS011;20979;59.850;10.660;2022-10-30T13:36:09;4.27;;;3.60;;
8982;SDS011;20979;59.850;10.660;2022-10-30T13:38:42;5.23;;;3.50;;
8982;SDS011;20979;59.850;10.660;2022-10-30T13:41:15;3.50;;;3.20;;
8982;SDS011;20979;59.850;10.660;2022-10-30T13:44:02;3.80;;;3.50;;
8982;SDS011;20979;59.850;10.660;2022-10-30T13:46:59;6.70;;;3.60;;
8982;SDS011;20979;59.850;10.660;2022-10-30T13:52:16;4.70;;;3.47;;
8982;SDS011;20979;59.850;10.660;2022-10-30T13:54:48;4.40;;;3.53;;
8982;SDS011;20979;59.850;10.660;2022-10-30T13:57:22;4.50;;;4.10;;
8982;SDS011;20979;59.850;10.660;2022-10-30T13:59:58;5.57;;;3.80;;
8982;SDS011;20979;59.850;10.660;2022-10-30T14:05:29;4.37;;;3.70;;
8982;SDS011;20979;59.850;10.660;2022-10-30T14:08:02;4.63;;;3.83;;
8982;SDS011;20979;59.850;10.660;2022-10-30T14:10:45;5.30;;;3.60;;
8982;SDS011;20979;59.850;10.660;2022-10-30T14:19:03;6.00;;;3.57;;
8982;SDS011;20979;59.850;10.660;2022-10-30T14:22:00;4.00;;;3.13;;
8982;SDS011;20979;59.850;10.660;2022-10-30T14:24:32;5.40;;;4.03;;
8982;SDS011;20979;59.850;10.660;2022-10-30T14:27:15;8.33;;;4.93;;
8982;SDS011;20979;59.850;10.660;2022-10-30T14:29:47;4.33;;;3.40;;
8982;SDS011;20979;59.850;10.660;2022-10-30T14:50:35;4.50;;;3.70;;
8982;SDS011;20979;59.850;10.660;2022-10-30T14:53:20;4.30;;;3.90;;
8982;SDS011;20979;59.850;10.660;2022-10-30T14:55:54;4.30;;;3.67;;
8982;SDS011;20979;59.850;10.660;2022-10-30T15:16:31;5.70;;;4.00;;
8982;SDS011;20979;59.850;10.660;2022-10-30T15:19:02;4.03;;;3.60;;
8982;SDS011;20979;59.850;10.660;2022-10-30T15:24:23;4.93;;;4.13;;
8982;SDS011;20979;59.850;10.660;2022-10-30T15:26:52;5.70;;;4.73;;
8982;SDS011;20979;59.850;10.660;2022-10-30T15:29:21;7.57;;;5.70;;
8982;SDS011;20979;59.850;10.660;2022-10-30T15:31:58;6.00;;;5.40;;
8982;SDS011;20979;59.850;10.660;2022-10-30T15:34:26;6.53;;;5.30;;
8982;SDS011;20979;59.850;10.660;2022-10-30T15:36:54;6.23;;;5.60;;
8982;SDS011;20979;59.850;10.660;2022-10-30T15:42:14;5.80;;;5.20;;
8982;SDS011;20979;59.850;10.660;2022-10-30T15:44:52;6.87;;;5.30;;
8982;SDS011;20979;59.850;10.660;2022-10-30T15:47:21;5.33;;;4.83;;
8982;SDS011;20979;59.850;10.660;2022-10-30T15:49:49;8.33;;;6.30;;
8982;SDS011;20979;59.850;10.660;2022-10-30T15:55:39;6.50;;;5.63;;
8982;SDS011;20979;59.850;10.660;2022-10-30T15:58:10;6.80;;;5.90;;
8982;SDS011;20979;59.850;10.660;2022-10-30T16:00:53;45.30;;;37.33;;
8982;SDS011;20979;59.850;10.660;2022-10-30T16:06:54;12.00;;;8.60;;
8982;SDS011;20979;59.850;10.660;2022-10-30T16:09:32;7.53;;;5.43;;
8982;SDS011;20979;59.850;10.660;2022-10-30T16:11:59;5.97;;;5.37;;
8982;SDS011;20979;59.850;10.660;2022-10-30T16:14:29;6.40;;;5.57;;
8982;SDS011;20979;59.850;10.660;2022-10-30T16:16:59;8.30;;;5.87;;
8982;SDS011;20979;59.850;10.660;2022-10-30T16:19:27;9.63;;;6.70;;
8982;SDS011;20979;59.850;10.660;2022-10-30T16:27:57;8.93;;;7.60;;
8982;SDS011;20979;59.850;10.660;2022-10-30T16:30:24;9.77;;;6.80;;
8982;SDS011;20979;59.850;10.660;2022-10-30T16:32:53;11.67;;;7.93;;
8982;SDS011;20979;59.850;10.660;2022-10-30T16:35:28;9.57;;;7.63;;
8982;SDS011;20979;59.850;10.660;2022-10-30T16:37:58;8.67;;;7.03;;
8982;SDS011;20979;59.850;10.660;2022-10-30T16:40:45;10.17;;;6.77;;
8982;SDS011;20979;59.850;10.660;2022-10-30T16:46:20;9.30;;;7.23;;
8982;SDS011;20979;59.850;10.660;2022-10-30T16:49:04;10.73;;;7.83;;
8982;SDS011;20979;59.850;10.660;2022-10-30T17:31:42;12.17;;;9.83;;
8982;SDS011;20979;59.850;10.660;2022-10-30T17:34:17;16.93;;;10.47;;
8982;SDS011;20979;59.850;10.660;2022-10-30T17:36:49;12.77;;;9.70;;
8982;SDS011;20979;59.850;10.660;2022-10-30T17:39:36;13.60;;;10.10;;
8982;SDS011;20979;59.850;10.660;2022-10-30T17:42:08;12.93;;;10.93;;
8982;SDS011;20979;59.850;10.660;2022-10-30T17:44:36;12.60;;;10.60;;
8982;SDS011;20979;59.850;10.660;2022-10-30T17:47:11;12.43;;;11.07;;
8982;SDS011;20979;59.850;10.660;2022-10-30T17:49:41;11.40;;;10.20;;
8982;SDS011;20979;59.850;10.660;2022-10-30T18:01:32;16.10;;;11.67;;
8982;SDS011;20979;59.850;10.660;2022-10-30T18:10:10;14.33;;;10.50;;
8982;SDS011;20979;59.850;10.660;2022-10-30T18:15:21;20.20;;;13.60;;
8982;SDS011;20979;59.850;10.660;2022-10-30T18:17:49;15.53;;;12.00;;
8982;SDS011;20979;59.850;10.660;2022-10-30T18:20:17;15.13;;;12.43;;
8982;SDS011;20979;59.850;10.660;2022-10-30T18:22:50;15.70;;;11.20;;